createdAt,value
2023-05-09T00:00:23.550Z,58.35
2023-05-09T00:01:27.577Z,58.23
2023-05-09T00:02:29.738Z,58.05
2023-05-09T00:03:33.473Z,57.95
2023-05-09T00:04:35.385Z,57.83
2023-05-09T00:05:37.518Z,58.04
2023-05-09T00:06:39.497Z,58.04
2023-05-09T00:07:41.016Z,58.12
2023-05-09T00:08:43.384Z,58.24
2023-05-09T00:09:45.124Z,58.00
2023-05-09T00:10:46.706Z,57.95
2023-05-09T00:11:48.369Z,57.99
2023-05-09T00:12:50.055Z,58.11
2023-05-09T00:13:51.986Z,58.02
2023-05-09T00:14:54.418Z,57.94
2023-05-09T00:15:57.430Z,57.96
2023-05-09T00:16:59.908Z,58.00
2023-05-09T00:18:01.738Z,58.12
2023-05-09T00:19:04.297Z,58.13
2023-05-09T00:20:11.594Z,57.84
2023-05-09T00:21:13.748Z,58.24
2023-05-09T00:22:17.086Z,58.26
2023-05-09T00:23:18.975Z,58.45
2023-05-09T00:24:20.698Z,58.21
2023-05-09T00:25:22.584Z,58.18
2023-05-09T00:26:24.505Z,58.09
2023-05-09T00:27:26.140Z,58.26
2023-05-09T00:28:27.976Z,57.98
2023-05-09T00:29:29.743Z,58.15
2023-05-09T00:30:31.572Z,58.20
2023-05-09T00:31:33.156Z,57.92
2023-05-09T00:32:35.032Z,58.10
2023-05-09T00:33:36.763Z,57.99
2023-05-09T00:34:38.963Z,58.41
2023-05-09T00:35:40.544Z,58.47
2023-05-09T00:36:42.287Z,58.08
2023-05-09T00:37:44.438Z,58.41
2023-05-09T00:38:46.202Z,58.24
2023-05-09T00:39:48.788Z,58.28
2023-05-09T00:40:50.537Z,58.46
2023-05-09T00:41:52.685Z,58.36
2023-05-09T00:42:58.571Z,58.71
2023-05-09T00:44:00.238Z,58.69
2023-05-09T00:45:02.445Z,58.96
2023-05-09T00:46:04.764Z,58.81
2023-05-09T00:47:09.644Z,58.60
2023-05-09T00:48:11.612Z,58.55
2023-05-09T00:49:13.539Z,58.72
2023-05-09T00:50:15.247Z,58.72
2023-05-09T00:51:17.009Z,58.62
2023-05-09T00:52:23.512Z,58.91
2023-05-09T00:53:25.573Z,58.79
2023-05-09T00:54:27.534Z,58.50
2023-05-09T00:55:29.698Z,59.11
2023-05-09T00:56:31.342Z,59.10
2023-05-09T00:57:33.406Z,59.07
2023-05-09T00:58:35.225Z,59.07
2023-05-09T00:59:37.498Z,59.39
2023-05-09T01:00:39.874Z,59.44
2023-05-09T01:01:41.609Z,59.49
2023-05-09T01:02:47.556Z,59.79
2023-05-09T01:03:50.229Z,59.42
2023-05-09T01:04:51.964Z,59.63
2023-05-09T01:06:12.933Z,59.64
2023-05-09T01:07:26.615Z,60.34
2023-05-09T01:08:56.785Z,60.49
2023-05-09T01:10:04.872Z,59.65
2023-05-09T01:11:39.281Z,60.33
2023-05-09T01:12:54.591Z,60.35
2023-05-09T01:14:29.299Z,60.21
2023-05-09T01:15:43.396Z,60.59
2023-05-09T01:16:54.273Z,60.16
2023-05-09T01:17:59.838Z,60.43
2023-05-09T01:19:08.291Z,61.08
2023-05-09T01:20:33.794Z,61.08
2023-05-09T01:21:35.479Z,60.09
2023-05-09T01:22:40.316Z,60.15
2023-05-09T01:23:44.752Z,60.16
2023-05-09T01:25:07.305Z,60.68
2023-05-09T01:26:26.782Z,61.19
2023-05-09T01:27:55.847Z,61.18
2023-05-09T01:29:36.680Z,60.95
2023-05-09T01:30:38.757Z,60.61
2023-05-09T01:31:42.198Z,60.77
2023-05-09T01:32:47.748Z,60.68
2023-05-09T01:33:56.570Z,60.57
2023-05-09T01:35:01.428Z,60.68
2023-05-09T01:36:08.362Z,60.60
2023-05-09T01:37:13.100Z,60.90
2023-05-09T01:38:20.025Z,61.06
2023-05-09T01:39:24.627Z,61.24
2023-05-09T01:40:31.944Z,61.44
2023-05-09T01:41:37.769Z,61.56
2023-05-09T01:42:51.455Z,61.51
2023-05-09T01:43:56.127Z,61.36
2023-05-09T01:44:59.732Z,62.16
2023-05-09T01:46:03.743Z,61.53
2023-05-09T01:47:07.730Z,61.99
2023-05-09T01:48:10.856Z,61.76
2023-05-09T01:49:13.559Z,61.90
2023-05-09T01:50:18.938Z,62.48
2023-05-09T01:51:21.744Z,62.16
2023-05-09T01:52:25.489Z,62.20
2023-05-09T01:53:29.673Z,61.96
2023-05-09T01:54:32.781Z,61.63
2023-05-09T01:55:36.809Z,62.14
2023-05-09T01:56:40.986Z,62.33
2023-05-09T01:57:44.258Z,62.49
2023-05-09T01:58:48.466Z,62.14
2023-05-09T01:59:51.590Z,62.16
2023-05-09T02:00:53.742Z,62.41
2023-05-09T02:01:56.496Z,63.32
2023-05-09T02:02:59.229Z,62.86
2023-05-09T02:04:04.440Z,63.51
2023-05-09T02:05:09.412Z,63.01
2023-05-09T02:06:12.785Z,63.07
2023-05-09T02:07:15.073Z,63.17
2023-05-09T02:08:21.663Z,63.20
2023-05-09T02:09:23.787Z,63.07
2023-05-09T02:10:28.749Z,63.44
2023-05-09T02:11:30.652Z,63.41
2023-05-09T02:12:34.008Z,63.89
2023-05-09T02:13:38.237Z,64.09
2023-05-09T02:14:40.100Z,63.92
2023-05-09T02:15:42.764Z,63.94
2023-05-09T02:16:44.563Z,64.13
2023-05-09T02:17:46.829Z,64.30
2023-05-09T02:18:49.515Z,64.25
2023-05-09T02:19:51.956Z,64.00
2023-05-09T02:20:53.673Z,64.17
2023-05-09T02:21:55.332Z,64.42
2023-05-09T02:22:57.640Z,64.06
2023-05-09T02:23:59.808Z,64.19
2023-05-09T02:25:04.786Z,64.46
2023-05-09T02:26:08.137Z,64.62
2023-05-09T02:27:11.969Z,64.93
2023-05-09T02:28:14.149Z,64.69
2023-05-09T02:29:19.706Z,64.97
2023-05-09T02:30:27.657Z,65.40
2023-05-09T02:31:30.719Z,65.71
2023-05-09T02:32:35.612Z,65.31
2023-05-09T02:33:38.832Z,65.04
2023-05-09T02:34:42.277Z,65.64
2023-05-09T02:35:45.676Z,65.22
2023-05-09T02:36:47.811Z,65.22
2023-05-09T02:37:49.611Z,65.39
2023-05-09T02:38:51.602Z,65.69
2023-05-09T02:39:53.769Z,65.21
2023-05-09T02:40:56.475Z,64.96
2023-05-09T02:42:06.150Z,66.00
2023-05-09T02:43:07.956Z,65.19
2023-05-09T02:44:09.762Z,65.96
2023-05-09T02:45:11.666Z,65.27
2023-05-09T02:46:13.546Z,65.23
2023-05-09T02:47:15.182Z,65.99
2023-05-09T02:48:16.864Z,66.02
2023-05-09T02:49:31.597Z,65.73
2023-05-09T02:50:35.074Z,65.88
2023-05-09T02:51:36.879Z,65.95
2023-05-09T02:52:38.656Z,65.63
2023-05-09T02:53:40.526Z,65.42
2023-05-09T02:54:42.522Z,65.61
2023-05-09T02:55:44.233Z,66.05
2023-05-09T02:56:45.994Z,66.27
2023-05-09T02:57:47.913Z,65.94
2023-05-09T02:58:51.143Z,66.70
2023-05-09T02:59:53.346Z,66.82
2023-05-09T03:00:55.088Z,65.85
2023-05-09T03:01:57.096Z,66.35
2023-05-09T03:03:00.202Z,66.57
2023-05-09T03:04:02.503Z,67.73
2023-05-09T03:05:04.673Z,66.73
2023-05-09T03:06:07.991Z,66.97
2023-05-09T03:07:09.875Z,67.76
2023-05-09T03:08:11.741Z,67.40
2023-05-09T03:09:13.422Z,67.13
2023-05-09T03:10:15.051Z,67.25
2023-05-09T03:11:18.070Z,67.48
2023-05-09T03:12:21.505Z,67.49
2023-05-09T03:13:28.087Z,67.06
2023-05-09T03:14:31.681Z,66.73
2023-05-09T03:15:34.017Z,67.53
2023-05-09T03:16:35.640Z,67.42
2023-05-09T03:17:38.372Z,67.13
2023-05-09T03:18:40.204Z,67.02
2023-05-09T03:19:41.973Z,66.97
2023-05-09T03:20:43.568Z,67.26
2023-05-09T03:21:45.226Z,67.29
2023-05-09T03:22:48.453Z,67.01
2023-05-09T03:23:50.614Z,67.23
2023-05-09T03:24:52.512Z,68.13
2023-05-09T03:25:54.172Z,67.80
2023-05-09T03:26:55.796Z,67.91
2023-05-09T03:28:00.173Z,67.71
2023-05-09T03:29:02.609Z,68.27
2023-05-09T03:30:04.982Z,67.94
2023-05-09T03:31:06.768Z,67.53
2023-05-09T03:32:08.679Z,68.02
2023-05-09T03:33:10.347Z,67.61
2023-05-09T03:34:15.121Z,67.90
2023-05-09T03:35:18.419Z,67.98
2023-05-09T03:36:20.734Z,68.22
2023-05-09T03:37:23.302Z,68.72
2023-05-09T03:38:26.261Z,68.22
2023-05-09T03:39:28.398Z,68.15
2023-05-09T03:40:34.495Z,68.68
2023-05-09T03:41:44.330Z,68.63
2023-05-09T03:42:46.899Z,68.59
2023-05-09T03:43:48.735Z,68.79
2023-05-09T03:44:50.346Z,68.18
2023-05-09T03:45:54.525Z,68.40
2023-05-09T03:46:56.139Z,68.52
2023-05-09T03:47:58.287Z,68.28
2023-05-09T03:49:00.058Z,68.32
2023-05-09T03:50:01.653Z,67.98
2023-05-09T03:51:04.008Z,68.74
2023-05-09T03:52:09.029Z,69.12
2023-05-09T03:53:11.631Z,68.49
2023-05-09T03:54:14.464Z,68.71
2023-05-09T03:55:16.882Z,68.96
2023-05-09T03:56:18.708Z,69.02
2023-05-09T03:57:24.822Z,69.18
2023-05-09T03:58:29.874Z,69.00
2023-05-09T03:59:32.050Z,69.03
2023-05-09T04:00:34.770Z,69.36
2023-05-09T04:01:43.668Z,69.45
2023-05-09T04:02:45.431Z,69.03
2023-05-09T04:03:57.708Z,68.81
2023-05-09T04:05:00.859Z,68.29
2023-05-09T04:06:02.943Z,68.43
2023-05-09T04:07:09.693Z,67.97
2023-05-09T04:08:11.635Z,68.45
2023-05-09T04:09:13.452Z,67.67
2023-05-09T04:10:16.909Z,68.20
2023-05-09T04:11:18.817Z,68.61
2023-05-09T04:12:22.598Z,67.87
2023-05-09T04:13:24.896Z,67.80
2023-05-09T04:14:26.639Z,68.42
2023-05-09T04:15:28.472Z,67.72
2023-05-09T04:16:31.881Z,67.54
2023-05-09T04:17:34.026Z,67.49
2023-05-09T04:18:36.773Z,67.68
2023-05-09T04:19:38.989Z,67.50
2023-05-09T04:20:40.836Z,67.61
2023-05-09T04:21:42.951Z,68.72
2023-05-09T04:22:46.813Z,68.13
2023-05-09T04:23:49.985Z,68.55
2023-05-09T04:24:54.636Z,68.56
2023-05-09T04:25:56.896Z,69.02
2023-05-09T04:26:58.644Z,69.40
2023-05-09T04:28:01.717Z,68.83
2023-05-09T04:29:06.485Z,68.68
2023-05-09T04:30:09.441Z,68.68
2023-05-09T04:31:12.953Z,68.93
2023-05-09T04:32:15.673Z,68.97
2023-05-09T04:33:17.935Z,68.55
2023-05-09T04:34:19.875Z,68.96
2023-05-09T04:35:22.744Z,69.40
2023-05-09T04:36:27.757Z,69.45
2023-05-09T04:37:32.801Z,69.20
2023-05-09T04:38:36.680Z,69.01
2023-05-09T04:39:42.528Z,68.70
2023-05-09T04:40:51.589Z,69.26
2023-05-09T04:41:53.265Z,69.75
2023-05-09T04:42:55.097Z,68.94
2023-05-09T04:44:00.800Z,70.38
2023-05-09T04:45:03.040Z,69.47
2023-05-09T04:46:05.066Z,69.29
2023-05-09T04:47:07.973Z,69.21
2023-05-09T04:48:10.223Z,68.88
2023-05-09T04:49:11.839Z,68.93
2023-05-09T04:50:13.593Z,69.26
2023-05-09T04:51:15.224Z,70.47
2023-05-09T04:52:19.382Z,69.53
2023-05-09T04:53:20.979Z,70.34
2023-05-09T04:54:23.506Z,69.47
2023-05-09T04:55:27.580Z,69.46
2023-05-09T04:56:30.644Z,69.60
2023-05-09T04:57:33.291Z,69.71
2023-05-09T04:58:38.588Z,69.25
2023-05-09T04:59:44.223Z,69.24
2023-05-09T05:00:48.076Z,69.76
2023-05-09T05:01:51.573Z,70.01
2023-05-09T05:02:53.586Z,69.36
2023-05-09T05:03:55.573Z,69.30
2023-05-09T05:05:10.254Z,68.98
2023-05-09T05:06:15.004Z,69.29
2023-05-09T05:07:17.537Z,69.20
2023-05-09T05:08:20.018Z,69.52
2023-05-09T05:09:22.760Z,69.04
2023-05-09T05:10:25.886Z,69.93
2023-05-09T05:11:35.554Z,69.41
2023-05-09T05:12:39.106Z,69.22
2023-05-09T05:13:44.413Z,69.42
2023-05-09T05:14:46.167Z,68.80
2023-05-09T05:15:52.835Z,69.12
2023-05-09T05:16:55.731Z,68.97
2023-05-09T05:17:58.760Z,69.23
2023-05-09T05:19:05.104Z,69.45
2023-05-09T05:20:11.322Z,69.02
2023-05-09T05:21:17.649Z,69.12
2023-05-09T05:22:20.016Z,68.97
2023-05-09T05:23:21.944Z,69.05
2023-05-09T05:24:27.039Z,68.59
2023-05-09T05:25:31.448Z,68.76
2023-05-09T05:26:35.234Z,68.73
2023-05-09T05:27:37.508Z,68.30
2023-05-09T05:28:39.918Z,68.31
2023-05-09T05:29:41.618Z,68.25
2023-05-09T05:30:43.385Z,67.89
2023-05-09T05:31:45.042Z,67.76
2023-05-09T05:32:47.090Z,67.18
2023-05-09T05:33:51.305Z,67.24
2023-05-09T05:34:53.900Z,67.11
2023-05-09T05:35:55.635Z,67.23
2023-05-09T05:36:57.463Z,67.02
2023-05-09T05:37:59.318Z,66.94
2023-05-09T05:39:01.393Z,67.01
2023-05-09T05:40:03.536Z,67.09
2023-05-09T05:41:06.228Z,66.42
2023-05-09T05:42:08.688Z,66.43
2023-05-09T05:43:10.601Z,66.34
2023-05-09T05:44:13.649Z,66.08
2023-05-09T05:45:16.531Z,66.12
2023-05-09T05:46:22.912Z,66.40
2023-05-09T05:47:24.831Z,65.96
2023-05-09T05:48:26.931Z,66.20
2023-05-09T05:49:29.697Z,65.70
2023-05-09T05:50:31.545Z,65.45
2023-05-09T05:51:33.646Z,65.39
2023-05-09T05:52:36.375Z,65.68
2023-05-09T05:53:37.955Z,65.38
2023-05-09T05:54:39.688Z,65.89
2023-05-09T05:55:41.474Z,65.75
2023-05-09T05:56:43.181Z,65.42
2023-05-09T05:57:46.970Z,65.13
2023-05-09T05:58:49.888Z,65.14
2023-05-09T05:59:53.451Z,64.97
2023-05-09T06:00:56.628Z,64.95
2023-05-09T06:01:58.843Z,64.80
2023-05-09T06:03:00.526Z,64.66
2023-05-09T06:04:23.682Z,64.33
2023-05-09T06:05:25.297Z,64.05
2023-05-09T06:06:28.020Z,64.09
2023-05-09T06:07:30.184Z,63.79
2023-05-09T06:08:31.841Z,63.77
2023-05-09T06:09:34.410Z,63.92
2023-05-09T06:10:36.148Z,63.68
2023-05-09T06:11:37.990Z,63.75
2023-05-09T06:12:40.012Z,63.54
2023-05-09T06:13:41.956Z,63.37
2023-05-09T06:14:45.008Z,63.57
2023-05-09T06:15:49.169Z,63.47
2023-05-09T06:16:51.985Z,63.38
2023-05-09T06:17:54.821Z,63.47
2023-05-09T06:18:56.714Z,63.18
2023-05-09T06:19:58.701Z,63.32
2023-05-09T06:21:00.290Z,63.25
2023-05-09T06:22:01.880Z,63.10
2023-05-09T06:23:03.563Z,62.64
2023-05-09T06:24:14.118Z,62.44
2023-05-09T06:25:22.761Z,62.18
2023-05-09T06:26:24.620Z,62.38
2023-05-09T06:27:26.590Z,62.21
2023-05-09T06:28:28.653Z,62.29
2023-05-09T06:29:30.362Z,62.16
2023-05-09T06:30:31.965Z,62.09
2023-05-09T06:31:40.100Z,62.20
2023-05-09T06:32:41.765Z,62.09
2023-05-09T06:33:43.473Z,61.58
2023-05-09T06:34:45.017Z,61.91
2023-05-09T06:35:46.685Z,61.30
2023-05-09T06:36:48.608Z,61.34
2023-05-09T06:37:50.370Z,61.41
2023-05-09T06:38:52.139Z,61.26
2023-05-09T06:39:55.130Z,61.26
2023-05-09T06:40:56.756Z,61.55
2023-05-09T06:41:58.566Z,61.36
2023-05-09T06:43:06.186Z,61.41
2023-05-09T06:44:08.250Z,61.40
2023-05-09T06:45:10.507Z,61.23
2023-05-09T06:46:12.471Z,61.24
2023-05-09T06:47:14.208Z,61.14
2023-05-09T06:48:15.849Z,61.11
2023-05-09T06:49:17.828Z,60.59
2023-05-09T06:50:19.951Z,60.83
2023-05-09T06:51:22.006Z,60.93
2023-05-09T06:52:23.875Z,61.09
2023-05-09T06:53:25.701Z,61.04
2023-05-09T06:54:27.849Z,60.88
2023-05-09T06:55:29.888Z,60.62
2023-05-09T06:56:31.722Z,60.86
2023-05-09T06:57:33.688Z,60.93
2023-05-09T06:58:36.803Z,60.91
2023-05-09T06:59:38.774Z,60.94
2023-05-09T07:00:40.399Z,60.96
2023-05-09T07:01:42.580Z,60.90
2023-05-09T07:02:44.471Z,60.80
2023-05-09T07:03:47.548Z,60.71
2023-05-09T07:04:49.678Z,60.54
2023-05-09T07:05:52.760Z,59.97
2023-05-09T07:06:54.609Z,60.12
2023-05-09T07:07:59.418Z,60.12
2023-05-09T07:09:01.180Z,60.31
2023-05-09T07:10:11.303Z,60.11
2023-05-09T07:11:13.855Z,59.89
2023-05-09T07:12:15.408Z,60.20
2023-05-09T07:13:17.026Z,59.79
2023-05-09T07:14:18.704Z,60.03
2023-05-09T07:15:32.491Z,60.05
2023-05-09T07:16:41.996Z,60.14
2023-05-09T07:17:43.682Z,60.04
2023-05-09T07:18:45.734Z,59.86
2023-05-09T07:19:47.627Z,59.84
2023-05-09T07:20:49.900Z,60.12
2023-05-09T07:21:51.516Z,59.82
2023-05-09T07:22:53.111Z,59.75
2023-05-09T07:23:55.004Z,59.80
2023-05-09T07:24:56.585Z,59.33
2023-05-09T07:26:00.850Z,59.56
2023-05-09T07:27:04.434Z,59.71
2023-05-09T07:28:06.258Z,59.58
2023-05-09T07:29:08.031Z,59.39
2023-05-09T07:30:10.554Z,59.81
2023-05-09T07:31:12.204Z,59.81
2023-05-09T07:32:14.052Z,59.70
2023-05-09T07:33:15.695Z,59.74
2023-05-09T07:34:19.841Z,59.77
2023-05-09T07:35:21.595Z,59.26
2023-05-09T07:36:23.746Z,59.50
2023-05-09T07:37:25.559Z,59.55
2023-05-09T07:38:27.319Z,59.40
2023-05-09T07:39:28.896Z,59.14
2023-05-09T07:40:30.536Z,59.40
2023-05-09T07:41:32.342Z,58.88
2023-05-09T07:42:34.197Z,58.86
2023-05-09T07:43:36.298Z,58.77
2023-05-09T07:44:37.969Z,59.46
2023-05-09T07:45:39.950Z,59.16
2023-05-09T07:46:42.206Z,58.83
2023-05-09T07:47:44.014Z,58.72
2023-05-09T07:48:45.626Z,58.79
2023-05-09T07:49:48.029Z,59.39
2023-05-09T07:50:50.040Z,59.10
2023-05-09T07:51:51.657Z,58.70
2023-05-09T07:52:53.580Z,59.28
2023-05-09T07:53:56.788Z,58.99
2023-05-09T07:54:58.689Z,59.28
2023-05-09T07:56:00.739Z,58.83
2023-05-09T07:57:02.627Z,58.60
2023-05-09T07:58:04.645Z,57.68
2023-05-09T07:59:06.546Z,58.12
2023-05-09T08:00:09.012Z,58.51
2023-05-09T08:01:16.987Z,58.14
2023-05-09T08:02:19.092Z,58.17
2023-05-09T08:03:20.892Z,58.09
2023-05-09T08:04:22.901Z,58.06
2023-05-09T08:05:24.757Z,57.99
2023-05-09T08:06:26.515Z,58.11
2023-05-09T08:07:28.141Z,57.93
2023-05-09T08:08:30.042Z,57.92
2023-05-09T08:09:31.615Z,58.12
2023-05-09T08:10:33.728Z,58.15
2023-05-09T08:11:36.100Z,57.70
2023-05-09T08:12:38.755Z,57.45
2023-05-09T08:13:40.363Z,57.15
2023-05-09T08:14:41.971Z,57.73
2023-05-09T08:15:44.419Z,57.70
2023-05-09T08:16:45.981Z,57.60
2023-05-09T08:17:47.922Z,57.93
2023-05-09T08:18:49.816Z,57.57
2023-05-09T08:19:51.439Z,57.33
2023-05-09T08:20:53.162Z,57.01
2023-05-09T08:21:55.660Z,57.14
2023-05-09T08:22:57.754Z,57.30
2023-05-09T08:24:00.958Z,57.13
2023-05-09T08:25:02.901Z,57.24
2023-05-09T08:26:04.711Z,57.16
2023-05-09T08:27:06.409Z,56.95
2023-05-09T08:28:07.950Z,56.88
2023-05-09T08:29:09.789Z,56.79
2023-05-09T08:30:11.987Z,56.46
2023-05-09T08:31:13.735Z,56.45
2023-05-09T08:32:15.571Z,56.89
2023-05-09T08:33:17.702Z,57.06
2023-05-09T08:34:20.832Z,57.23
2023-05-09T08:35:22.772Z,57.38
2023-05-09T08:36:24.898Z,56.98
2023-05-09T08:37:27.490Z,56.89
2023-05-09T08:38:29.496Z,57.20
2023-05-09T08:39:31.793Z,55.97
2023-05-09T08:40:37.430Z,55.84
2023-05-09T08:41:39.664Z,56.36
2023-05-09T08:42:46.014Z,55.77
2023-05-09T08:43:49.446Z,55.36
2023-05-09T08:44:51.044Z,55.27
2023-05-09T08:45:58.146Z,54.86
2023-05-09T08:47:02.750Z,54.89
2023-05-09T08:48:05.182Z,55.02
2023-05-09T08:49:08.369Z,55.08
2023-05-09T08:50:11.625Z,54.25
2023-05-09T08:51:13.856Z,54.59
2023-05-09T08:52:15.833Z,55.52
2023-05-09T08:53:18.090Z,55.01
2023-05-09T08:54:22.857Z,54.82
2023-05-09T08:55:25.843Z,54.88
2023-05-09T08:56:28.630Z,54.47
2023-05-09T08:57:32.542Z,54.96
2023-05-09T08:58:34.639Z,55.19
2023-05-09T08:59:37.496Z,55.67
2023-05-09T09:00:41.435Z,55.54
2023-05-09T09:01:43.794Z,55.28
2023-05-09T09:02:46.063Z,53.77
2023-05-09T09:03:49.576Z,54.45
2023-05-09T09:04:51.422Z,53.41
2023-05-09T09:05:55.257Z,54.83
2023-05-09T09:06:57.696Z,53.22
2023-05-09T09:07:59.972Z,53.88
2023-05-09T09:09:02.533Z,53.92
2023-05-09T09:10:05.331Z,53.82
2023-05-09T09:11:07.703Z,53.88
2023-05-09T09:12:10.242Z,53.72
2023-05-09T09:13:14.218Z,53.48
2023-05-09T09:14:22.812Z,53.71
2023-05-09T09:15:28.628Z,53.65
2023-05-09T09:16:32.583Z,54.23
2023-05-09T09:17:41.426Z,53.97
2023-05-09T09:18:43.679Z,52.82
2023-05-09T09:19:48.850Z,53.79
2023-05-09T09:20:57.611Z,52.78
2023-05-09T09:22:02.599Z,53.11
2023-05-09T09:23:08.087Z,53.15
2023-05-09T09:24:13.616Z,53.54
2023-05-09T09:25:15.167Z,53.85
2023-05-09T09:26:16.723Z,53.56
2023-05-09T09:27:19.378Z,52.71
2023-05-09T09:28:21.119Z,52.83
2023-05-09T09:29:23.160Z,51.52
2023-05-09T09:30:26.586Z,51.11
2023-05-09T09:31:33.297Z,52.16
2023-05-09T09:32:36.057Z,52.05
2023-05-09T09:33:37.985Z,51.71
2023-05-09T09:34:39.780Z,50.72
2023-05-09T09:35:43.546Z,51.51
2023-05-09T09:36:46.843Z,51.83
2023-05-09T09:37:48.754Z,52.03
2023-05-09T09:38:50.914Z,51.51
2023-05-09T09:39:56.604Z,51.16
2023-05-09T09:40:59.181Z,51.46
2023-05-09T09:42:11.925Z,50.23
2023-05-09T09:43:14.241Z,50.30
2023-05-09T09:44:20.882Z,50.54
2023-05-09T09:45:22.695Z,51.09
2023-05-09T09:46:24.918Z,50.47
2023-05-09T09:47:32.882Z,50.88
2023-05-09T09:48:35.826Z,50.39
2023-05-09T09:49:38.240Z,50.15
2023-05-09T09:50:40.576Z,50.90
2023-05-09T09:51:42.819Z,50.47
2023-05-09T09:52:52.184Z,49.99
2023-05-09T09:53:54.371Z,48.45
2023-05-09T09:54:56.882Z,49.82
2023-05-09T09:55:59.231Z,49.57
2023-05-09T09:57:01.859Z,49.84
2023-05-09T09:58:15.988Z,49.59
2023-05-09T09:59:19.727Z,48.01
2023-05-09T10:00:28.609Z,48.84
2023-05-09T10:01:30.098Z,48.93
2023-05-09T10:02:32.369Z,49.79
2023-05-09T10:03:39.366Z,49.29
2023-05-09T10:04:42.618Z,50.50
2023-05-09T10:05:44.931Z,49.34
2023-05-09T10:07:04.942Z,49.01
2023-05-09T10:08:10.074Z,50.58
2023-05-09T10:09:11.682Z,50.34
2023-05-09T10:10:13.729Z,50.17
2023-05-09T10:11:15.777Z,49.43
2023-05-09T10:12:19.932Z,49.52
2023-05-09T10:13:21.651Z,49.07
2023-05-09T10:14:25.632Z,48.55
2023-05-09T10:15:35.694Z,47.97
2023-05-09T10:16:44.761Z,48.19
2023-05-09T10:17:46.571Z,47.08
2023-05-09T10:18:48.503Z,47.12
2023-05-09T10:19:51.150Z,46.89
2023-05-09T10:20:54.937Z,47.24
2023-05-09T10:21:58.601Z,48.45
2023-05-09T10:23:04.057Z,47.08
2023-05-09T10:24:07.396Z,48.05
2023-05-09T10:25:17.577Z,46.71
2023-05-09T10:26:27.709Z,47.58
2023-05-09T10:27:32.316Z,48.03
2023-05-09T10:28:39.102Z,47.10
2023-05-09T10:29:51.761Z,46.92
2023-05-09T10:31:10.191Z,47.35
2023-05-09T10:32:20.553Z,48.01
2023-05-09T10:33:30.867Z,48.36
2023-05-09T10:34:36.335Z,47.47
2023-05-09T10:35:44.540Z,47.70
2023-05-09T10:36:47.199Z,47.99
2023-05-09T10:37:48.908Z,48.22
2023-05-09T10:38:53.838Z,46.45
2023-05-09T10:39:57.016Z,47.44
2023-05-09T10:40:59.551Z,48.07
2023-05-09T10:42:02.168Z,47.28
2023-05-09T10:43:05.262Z,47.72
2023-05-09T10:44:07.364Z,47.56
2023-05-09T10:45:11.245Z,47.10
2023-05-09T10:46:13.604Z,46.93
2023-05-09T10:47:16.018Z,47.29
2023-05-09T10:48:18.959Z,47.14
2023-05-09T10:49:21.603Z,47.47
2023-05-09T10:50:23.760Z,45.81
2023-05-09T10:51:26.215Z,46.42
2023-05-09T10:52:34.262Z,46.79
2023-05-09T10:53:47.833Z,46.26
2023-05-09T10:55:03.922Z,46.01
2023-05-09T10:56:05.917Z,46.34
2023-05-09T10:57:11.163Z,45.99
2023-05-09T10:58:26.286Z,45.50
2023-05-09T10:59:36.359Z,45.72
2023-05-09T11:00:44.002Z,47.03
2023-05-09T11:01:46.559Z,45.37
2023-05-09T11:03:10.447Z,45.68
2023-05-09T11:04:14.677Z,46.33
2023-05-09T11:05:17.901Z,46.75
2023-05-09T11:06:45.447Z,46.07
2023-05-09T11:07:47.167Z,45.99
2023-05-09T11:08:48.721Z,45.68
2023-05-09T11:10:07.551Z,46.37
2023-05-09T11:11:25.546Z,44.93
2023-05-09T11:12:27.327Z,45.44
2023-05-09T11:13:33.827Z,45.24
2023-05-09T11:14:49.799Z,45.60
2023-05-09T11:15:54.240Z,45.13
2023-05-09T11:17:00.851Z,46.03
2023-05-09T11:18:10.642Z,45.90
2023-05-09T11:19:12.668Z,45.84
2023-05-09T11:20:14.491Z,45.26
2023-05-09T11:21:16.709Z,44.92
2023-05-09T11:22:27.489Z,44.97
2023-05-09T11:23:31.408Z,45.47
2023-05-09T11:24:33.236Z,44.14
2023-05-09T11:25:34.937Z,44.99
2023-05-09T11:26:37.375Z,44.65
2023-05-09T11:27:40.991Z,43.20
2023-05-09T11:28:54.202Z,44.34
2023-05-09T11:29:59.565Z,42.72
2023-05-09T11:31:17.797Z,42.83
2023-05-09T11:32:21.002Z,43.72
2023-05-09T11:33:24.596Z,43.15
2023-05-09T11:34:26.355Z,43.04
2023-05-09T11:35:27.994Z,43.20
2023-05-09T11:36:33.470Z,42.70
2023-05-09T11:37:48.960Z,42.77
2023-05-09T11:39:02.408Z,43.43
2023-05-09T11:40:04.925Z,42.55
2023-05-09T11:41:08.785Z,42.94
2023-05-09T11:42:10.993Z,42.31
2023-05-09T11:43:12.968Z,41.99
2023-05-09T11:44:19.239Z,43.28
2023-05-09T11:45:22.749Z,41.90
2023-05-09T11:46:24.478Z,42.59
2023-05-09T11:47:28.831Z,42.40
2023-05-09T11:48:30.929Z,42.41
2023-05-09T11:49:33.017Z,42.94
2023-05-09T11:50:34.935Z,42.70
2023-05-09T11:51:38.163Z,42.54
2023-05-09T11:52:40.661Z,43.43
2023-05-09T11:53:46.781Z,42.77
2023-05-09T11:54:49.584Z,41.86
2023-05-09T11:55:51.426Z,42.88
2023-05-09T11:56:53.329Z,42.06
2023-05-09T11:57:55.129Z,42.23
2023-05-09T11:58:56.818Z,41.23
2023-05-09T12:00:00.889Z,40.42
2023-05-09T12:01:02.678Z,41.26
2023-05-09T12:02:05.820Z,42.04
2023-05-09T12:03:07.696Z,42.52
2023-05-09T12:04:09.598Z,40.53
2023-05-09T12:05:13.754Z,41.72
2023-05-09T12:06:19.490Z,41.79
2023-05-09T12:07:21.521Z,41.21
2023-05-09T12:08:24.812Z,41.95
2023-05-09T12:09:32.828Z,41.83
2023-05-09T12:10:38.096Z,41.94
2023-05-09T12:11:50.169Z,40.03
2023-05-09T12:12:55.442Z,40.42
2023-05-09T12:13:57.668Z,40.53
2023-05-09T12:15:03.185Z,40.01
2023-05-09T12:16:05.043Z,40.55
2023-05-09T12:17:08.025Z,41.42
2023-05-09T12:18:09.812Z,41.14
2023-05-09T12:19:11.921Z,41.71
2023-05-09T12:20:14.424Z,41.59
2023-05-09T12:21:17.491Z,40.85
2023-05-09T12:22:20.081Z,41.46
2023-05-09T12:23:21.832Z,41.45
2023-05-09T12:24:24.465Z,40.06
2023-05-09T12:25:26.019Z,40.92
2023-05-09T12:26:28.449Z,41.14
2023-05-09T12:27:32.030Z,40.46
2023-05-09T12:28:34.455Z,41.23
2023-05-09T12:29:36.254Z,40.24
2023-05-09T12:30:38.159Z,39.99
2023-05-09T12:31:41.755Z,40.38
2023-05-09T12:32:43.808Z,40.79
2023-05-09T12:33:45.885Z,40.87
2023-05-09T12:34:51.576Z,40.47
2023-05-09T12:36:08.556Z,39.86
2023-05-09T12:37:18.048Z,40.08
2023-05-09T12:38:23.404Z,40.82
2023-05-09T12:39:27.021Z,41.36
2023-05-09T12:40:29.212Z,40.28
2023-05-09T12:41:39.261Z,39.49
2023-05-09T12:42:44.925Z,40.46
2023-05-09T12:43:48.965Z,39.93
2023-05-09T12:44:50.867Z,39.94
2023-05-09T12:45:53.157Z,39.81
2023-05-09T12:47:01.352Z,40.56
2023-05-09T12:48:04.937Z,40.62
2023-05-09T12:49:19.343Z,39.82
2023-05-09T12:50:21.462Z,40.28
2023-05-09T12:51:23.803Z,40.10
2023-05-09T12:52:25.660Z,40.12
2023-05-09T12:53:32.224Z,40.29
2023-05-09T12:54:33.836Z,40.04
2023-05-09T12:55:40.865Z,40.23
2023-05-09T12:56:42.542Z,40.71
2023-05-09T12:57:57.704Z,40.96
2023-05-09T12:58:59.447Z,42.05
2023-05-09T13:00:02.846Z,41.42
2023-05-09T13:01:05.150Z,40.56
2023-05-09T13:02:07.736Z,40.29
2023-05-09T13:03:42.480Z,38.56
2023-05-09T13:04:44.304Z,40.52
2023-05-09T13:05:58.024Z,39.50
2023-05-09T13:06:59.919Z,40.02
2023-05-09T13:08:01.928Z,39.95
2023-05-09T13:09:08.605Z,40.62
2023-05-09T13:10:19.366Z,40.32
2023-05-09T13:11:21.024Z,40.20
2023-05-09T13:12:23.163Z,40.17
2023-05-09T13:13:28.774Z,40.39
2023-05-09T13:14:30.631Z,40.26
2023-05-09T13:15:33.759Z,39.12
2023-05-09T13:16:35.694Z,40.12
2023-05-09T13:17:37.794Z,39.46
2023-05-09T13:18:39.618Z,39.17
2023-05-09T13:19:41.287Z,39.43
2023-05-09T13:20:43.121Z,39.18
2023-05-09T13:21:45.003Z,39.16
2023-05-09T13:22:47.449Z,39.46
2023-05-09T13:23:50.368Z,39.12
2023-05-09T13:24:52.023Z,38.76
2023-05-09T13:25:53.761Z,39.93
2023-05-09T13:26:55.327Z,39.43
2023-05-09T13:27:56.890Z,39.21
2023-05-09T13:28:59.150Z,39.20
2023-05-09T13:30:00.731Z,39.51
2023-05-09T13:31:02.982Z,38.87
2023-05-09T13:32:04.983Z,38.73
2023-05-09T13:33:23.891Z,37.81
2023-05-09T13:34:27.603Z,38.40
2023-05-09T13:35:29.974Z,38.55
2023-05-09T13:36:32.660Z,38.58
2023-05-09T13:37:35.268Z,38.83
2023-05-09T13:38:40.257Z,38.75
2023-05-09T13:39:42.295Z,37.79
2023-05-09T13:40:43.860Z,38.91
2023-05-09T13:41:45.499Z,39.50
2023-05-09T13:42:51.285Z,39.13
2023-05-09T13:43:52.908Z,39.46